Impacts TAF Board INFO
FOR SITUATIONAL AWARENESS. NOT TO BE USED FOR FLIGHT PLANNING PURPOSES.
IDs:

KBWI - Baltimore-Washington, MD, US

Issued at 2341 UTC 30 Apr 2017
Updated at 0023 UTC 01 May 2017
Potential Impact None Slight Moderate High
Time2354Z 01/01Z 01/02Z 01/03Z 01/04Z 01/05Z 01/06Z 01/07Z 01/08Z 01/09Z 01/10Z 01/11Z 01/12Z 01/13Z>>
Type OBS PRVL PRVL PRVL PRVL PRVL PRVL PRVL PRVL PRVL PRVL PRVL PRVL PRVL
VIS 7 >6 >6 >6 >6 >6 >6 >6 >6 >6 >6 >6 >6 >6
CIG 250 200 200 200 200 200 200 200 200 200 200 110 110 110
Cover BKN BKN BKN BKN BKN BKN BKN BKN BKN BKN BKN BKN BKN BKN
FltCat VFR VFR VFR VFR VFR VFR VFR VFR VFR VFR VFR VFR VFR VFR
WX -- -- -- -- -- -- -- -- -- -- -- -- -- --
WDir 70 80 80 80 80 80 140 140 140 140 140 190 190 190
WSpd 12 8 8 8 8 8 5 5 5 5 5 9 9 9
WGst -- -- -- -- -- -- -- -- -- -- -- -- -- --

Raw TAF
KBWI 302341Z 0100/0206 08008KT P6SM SCT040 BKN200
  FM010600 14005KT P6SM SCT025 BKN200
  FM011100 19009KT P6SM SCT025 BKN110
  FM011400 21013G20KT P6SM SCT025 BKN045
  FM020000 18015G23KT P6SM -SHRA VCTS SCT035CB OVC060
  FM020300 20015G24KT P6SM SCT025 OVC035


Raw METAR
KBWI 302354Z 07012KT 7SM FEW030 FEW085 BKN250 22/18 A3004 RMK AO2 SLP170 T02170178 10261 20217 53003
KBWI 302254Z 09012KT 10SM SCT030 BKN250 23/18 A3001 RMK AO2 SLP161 T02330178
KBWI 302154Z 10012KT 10SM SCT030TCU BKN250 25/18 A3002 RMK AO2 SLP164 TCU SW MOV E T02500183

METAR Board
Radar Display
Forecast Discussion

FOR SITUATIONAL AWARENESS. NOT TO BE USED FOR FLIGHT PLANNING PURPOSES.

Page loaded:  00:23 UTC  |   05:23 PM Pacific  |   06:23 PM Mountain  |   07:23 PM Central  |   08:23 PM Eastern

 

ADVISORIES

FORECASTS

FORECASTS

OBSERVATIONS

USER TOOLS

ABOUT US